Plainfield, NJ (07062)

2:42 AM EDT on August 30, 2016 (GMT -0400)
Fire Station #161 | | Change Station

Elev 144 ft 40.65 °N, 74.40 °W | Updated 2 seconds ago

Clear
Clear
71.2 °F
Feels Like 74 °F
N
1.0
Wind Variable Wind from NE
Gusts 3.0 mph

Today
High -- | Low -- °F
--% Chance of Precip.
Yesterday
High -- | Low -- °F
Precip. -- in
Pressure 30.15 in
Visibility 10.0 miles
Clouds Clear
Heat Index 74 °F
Dew Point 60 °F
Humidity 69%
Rainfall 0.00 in
Snow Depth Not available.
6:23 AM 7:32 PM
Waning Crescent, 5% visible
METAR KLDJ 300635Z AUTO 04008KT 10SM CLR 24/13 A3015 RMK AO2 T02360127
Pressure 30.15 in
Visibility 10.0 miles
Clouds Clear
Heat Index 74 °F
Dew Point 60 °F
Humidity 69%
Rainfall 0.00 in
Snow Depth Not available.
6:23 AM 7:32 PM
Waning Crescent, 5% visible
METAR KLDJ 300635Z AUTO 04008KT 10SM CLR 24/13 A3015 RMK AO2 T02360127

10-Day Weather Forecast

Almanac

Astronomy

Aug. 30, 2016 Rise Set
Actual Time
Civil Twilight
Nautical Twilight
Astronomical Twilight
Moon
Length of Visible Light
Length of Day
Tomorrow will be .
, % of the Moon is Illuminated

Today's Extremes

State Highs State Lows

Community

WunderPhotos

Upload Photos

1,935,795 photos uploaded!

WunderBlog® & News

Nearby

Air Quality

  Air Quality AQ Index Pollutant
Not available.

Snow Depth

Station Depth Elevation

Earthquake Activity

City Distance Mag. Time & Date
Minimum magnitude displayed is 2.5.

Coastal Water Temperatures

Place Temperature

Stations

Nearby Weather Stations

Station Location Temp. Windchill Dew Point Humidity Wind Precip. Elev Updated Type
                   

Watches & Warnings

There are currently no watches in effect.